createdAt,value
2023-05-14T00:01:38.150Z,98005.00
2023-05-14T00:04:06.694Z,98003.13
2023-05-14T00:06:36.074Z,98009.06
2023-05-14T00:09:04.455Z,98003.41
2023-05-14T00:11:32.569Z,97999.84
2023-05-14T00:14:00.544Z,97999.03
2023-05-14T00:16:28.559Z,98001.72
2023-05-14T00:18:56.680Z,97989.31
2023-05-14T00:21:24.656Z,97985.00
2023-05-14T00:23:53.989Z,97986.63
2023-05-14T00:26:24.008Z,97970.44
2023-05-14T00:28:52.044Z,97989.56
2023-05-14T00:31:20.219Z,97983.63
2023-05-14T00:33:48.227Z,97987.13
2023-05-14T00:36:16.324Z,97981.19
2023-05-14T00:38:44.241Z,97981.44
2023-05-14T00:41:13.942Z,97979.84
2023-05-14T00:43:41.888Z,97976.03
2023-05-14T00:46:12.512Z,97981.97
2023-05-14T00:48:40.536Z,97980.78
2023-05-14T00:51:09.818Z,97970.50
2023-05-14T00:53:37.997Z,97968.31
2023-05-14T00:56:07.173Z,97962.38
2023-05-14T00:58:41.812Z,97968.53
2023-05-14T01:01:10.345Z,97953.69
2023-05-14T01:03:39.097Z,97959.84
2023-05-14T01:06:14.301Z,97962.25
2023-05-14T01:08:52.262Z,97956.81
2023-05-14T01:11:23.773Z,97961.91
2023-05-14T01:14:04.804Z,97957.34
2023-05-14T01:16:35.513Z,97957.59
2023-05-14T01:19:06.871Z,97954.59
2023-05-14T01:21:40.497Z,97957.59
2023-05-14T01:24:09.423Z,97951.91
2023-05-14T01:26:37.917Z,97955.16
2023-05-14T01:29:14.972Z,97951.34
2023-05-14T01:31:45.801Z,97949.69
2023-05-14T01:34:15.763Z,97953.69
2023-05-14T01:36:45.911Z,97946.94
2023-05-14T01:39:15.970Z,97951.50
2023-05-14T01:41:45.234Z,97959.03
2023-05-14T01:44:13.911Z,97959.53
2023-05-14T01:46:41.994Z,97949.31
2023-05-14T01:49:10.376Z,97947.44
2023-05-14T01:51:38.435Z,97952.81
2023-05-14T01:54:07.729Z,97944.19
2023-05-14T01:56:35.792Z,97951.19
2023-05-14T01:59:06.548Z,97947.38
2023-05-14T02:01:35.330Z,97948.19
2023-05-14T02:04:03.849Z,97946.81
2023-05-14T02:06:32.339Z,97950.59
2023-05-14T02:09:00.362Z,97936.50
2023-05-14T02:11:30.069Z,97949.97
2023-05-14T02:13:58.143Z,97949.66
2023-05-14T02:16:26.295Z,97950.75
2023-05-14T02:18:54.307Z,97947.75
2023-05-14T02:21:22.360Z,97952.06
2023-05-14T02:23:51.197Z,97949.38
2023-05-14T02:26:22.402Z,97948.25
2023-05-14T02:28:52.016Z,97949.06
2023-05-14T02:31:20.151Z,97947.19
2023-05-14T02:33:48.118Z,97943.13
2023-05-14T02:36:16.124Z,97945.81
2023-05-14T02:38:44.320Z,97949.50
2023-05-14T02:41:12.217Z,97950.06
2023-05-14T02:43:40.115Z,97944.44
2023-05-14T02:46:09.551Z,97953.06
2023-05-14T02:48:40.966Z,97948.50
2023-05-14T02:51:09.442Z,97950.94
2023-05-14T02:53:37.387Z,97943.94
2023-05-14T02:56:05.877Z,97946.06
2023-05-14T02:58:33.933Z,97945.44
2023-05-14T03:01:02.013Z,97951.94
2023-05-14T03:03:32.229Z,97941.44
2023-05-14T03:06:00.872Z,97944.94
2023-05-14T03:08:29.035Z,97946.06
2023-05-14T03:10:57.120Z,97949.81
2023-05-14T03:13:25.192Z,97947.63
2023-05-14T03:15:57.072Z,97952.47
2023-05-14T03:18:31.309Z,97954.84
2023-05-14T03:21:00.771Z,97950.78
2023-05-14T03:23:28.746Z,97949.72
2023-05-14T03:25:56.794Z,97947.56
2023-05-14T03:28:25.240Z,97943.56
2023-05-14T03:30:53.297Z,97948.19
2023-05-14T03:33:21.379Z,97951.69
2023-05-14T03:35:49.407Z,97945.56
2023-05-14T03:38:18.745Z,97948.56
2023-05-14T03:40:46.784Z,97948.31
2023-05-14T03:43:15.286Z,97944.53
2023-05-14T03:45:46.440Z,97942.97
2023-05-14T03:48:14.500Z,97940.84
2023-05-14T03:50:42.801Z,97942.19
2023-05-14T03:53:10.780Z,97945.44
2023-05-14T03:55:41.012Z,97938.75
2023-05-14T03:58:13.844Z,97937.94
2023-05-14T04:00:42.462Z,97935.25
2023-05-14T04:03:11.270Z,97929.84
2023-05-14T04:05:39.450Z,97938.75
2023-05-14T04:08:07.462Z,97946.56
2023-05-14T04:10:35.767Z,97942.50
2023-05-14T04:13:05.398Z,97942.50
2023-05-14T04:15:33.586Z,97934.38
2023-05-14T04:18:01.565Z,97931.72
2023-05-14T04:20:29.577Z,97941.19
2023-05-14T04:22:57.630Z,97932.28
2023-05-14T04:25:25.519Z,97938.25
2023-05-14T04:27:53.500Z,97930.97
2023-05-14T04:30:23.204Z,97933.41
2023-05-14T04:32:51.951Z,97936.91
2023-05-14T04:35:22.645Z,97932.88
2023-05-14T04:37:52.180Z,97938.56
2023-05-14T04:40:20.212Z,97940.19
2023-05-14T04:42:48.282Z,97946.06
2023-05-14T04:45:17.583Z,97936.38
2023-05-14T04:47:47.534Z,97929.91
2023-05-14T04:50:15.619Z,97927.78
2023-05-14T04:52:43.640Z,97926.72
2023-05-14T04:55:11.570Z,97936.97
2023-05-14T04:57:39.536Z,97935.66
2023-05-14T05:00:10.200Z,97942.09
2023-05-14T05:02:38.482Z,97942.09
2023-05-14T05:05:08.841Z,97933.75
2023-05-14T05:07:36.915Z,97932.13
2023-05-14T05:10:05.041Z,97944.28
2023-05-14T05:12:33.005Z,97941.34
2023-05-14T05:15:01.071Z,97933.56
2023-05-14T05:17:31.986Z,97940.06
2023-05-14T05:19:59.982Z,97937.09
2023-05-14T05:22:31.559Z,97940.09
2023-05-14T05:24:59.884Z,97937.16
2023-05-14T05:27:28.387Z,97933.97
2023-05-14T05:29:56.365Z,97936.97
2023-05-14T05:32:24.719Z,97923.75
2023-05-14T05:34:53.329Z,97932.44
2023-05-14T05:37:24.534Z,97937.56
2023-05-14T05:39:54.079Z,97933.78
2023-05-14T05:42:22.543Z,97938.94
2023-05-14T05:44:50.592Z,97932.47
2023-05-14T05:47:18.626Z,97927.63
2023-05-14T05:49:46.566Z,97927.38
2023-05-14T05:52:15.043Z,97929.28
2023-05-14T05:54:43.074Z,97927.41
2023-05-14T05:57:12.516Z,97924.78
2023-05-14T05:59:40.522Z,97927.22
2023-05-14T06:02:08.630Z,97935.34
2023-05-14T06:04:36.657Z,97933.44
2023-05-14T06:07:04.877Z,97924.81
2023-05-14T06:09:32.833Z,97937.75
2023-05-14T06:12:00.892Z,97928.88
2023-05-14T06:14:30.566Z,97935.06
2023-05-14T06:16:58.740Z,97930.75
2023-05-14T06:19:26.773Z,97937.50
2023-05-14T06:21:57.598Z,97935.88
2023-05-14T06:24:25.617Z,97942.91
2023-05-14T06:26:53.813Z,97932.94
2023-05-14T06:29:21.819Z,97942.63
2023-05-14T06:31:51.255Z,97941.00
2023-05-14T06:34:19.651Z,97940.22
2023-05-14T06:36:47.537Z,97947.81
2023-05-14T06:39:18.273Z,97942.66
2023-05-14T06:41:46.276Z,97939.22
2023-05-14T06:44:14.267Z,97939.78
2023-05-14T06:46:42.164Z,97933.63
2023-05-14T06:49:11.822Z,97930.13
2023-05-14T06:51:40.821Z,97929.91
2023-05-14T06:54:08.758Z,97927.28
2023-05-14T06:56:36.719Z,97934.31
2023-05-14T06:59:04.703Z,97931.38
2023-05-14T07:01:32.716Z,97934.63
2023-05-14T07:04:00.971Z,97930.06
2023-05-14T07:06:30.866Z,97929.00
2023-05-14T07:08:58.865Z,97932.25
2023-05-14T07:11:26.819Z,97930.91
2023-05-14T07:13:55.127Z,97932.28
2023-05-14T07:16:23.075Z,97924.44
2023-05-14T07:18:51.153Z,97931.47
2023-05-14T07:21:19.480Z,97931.72
2023-05-14T07:23:48.875Z,97926.06
2023-05-14T07:26:16.775Z,97929.31
2023-05-14T07:28:44.784Z,97918.50
2023-05-14T07:31:12.734Z,97929.06
2023-05-14T07:33:40.792Z,97924.72
2023-05-14T07:36:09.220Z,97923.88
2023-05-14T07:38:37.310Z,97917.66
2023-05-14T07:41:06.875Z,97916.59
2023-05-14T07:43:34.868Z,97924.16
2023-05-14T07:46:02.814Z,97922.00
2023-05-14T07:48:30.781Z,97916.59
2023-05-14T07:50:58.729Z,97919.00
2023-05-14T07:53:26.914Z,97920.09
2023-05-14T07:55:54.911Z,97919.53
2023-05-14T07:58:25.167Z,97915.72
2023-05-14T08:00:53.378Z,97912.63
2023-05-14T08:03:21.439Z,97904.94
2023-05-14T08:05:49.526Z,97901.34
2023-05-14T08:08:17.520Z,97899.81
2023-05-14T08:10:45.959Z,97905.50
2023-05-14T08:13:13.979Z,97912.66
2023-05-14T08:15:43.307Z,97911.34
2023-05-14T08:18:11.258Z,97897.19
2023-05-14T08:20:39.276Z,97903.00
2023-05-14T08:23:07.448Z,97900.09
2023-05-14T08:25:35.510Z,97895.56
2023-05-14T08:28:03.437Z,97902.09
2023-05-14T08:30:31.493Z,97895.31
2023-05-14T08:33:01.001Z,97891.56
2023-05-14T08:35:29.147Z,97889.66
2023-05-14T08:37:57.495Z,97887.84
2023-05-14T08:40:28.143Z,97896.81
2023-05-14T08:42:58.287Z,97893.38
2023-05-14T08:45:33.981Z,97888.09
2023-05-14T08:48:08.842Z,97891.69
2023-05-14T08:50:37.506Z,97891.69
2023-05-14T08:53:05.634Z,97885.13
2023-05-14T08:55:34.315Z,97890.56
2023-05-14T08:58:02.573Z,97891.31
2023-05-14T09:00:30.927Z,97888.84
2023-05-14T09:03:00.557Z,97877.28
2023-05-14T09:05:30.036Z,97878.09
2023-05-14T09:07:58.314Z,97884.53
2023-05-14T09:10:26.522Z,97886.94
2023-05-14T09:12:54.899Z,97884.47
2023-05-14T09:15:23.849Z,97873.63
2023-05-14T09:17:53.219Z,97879.28
2023-05-14T09:20:22.725Z,97879.19
2023-05-14T09:22:56.701Z,97876.88
2023-05-14T09:25:28.592Z,97882.81
2023-05-14T09:27:58.997Z,97870.34
2023-05-14T09:30:27.454Z,97872.28
2023-05-14T09:32:56.377Z,97872.06
2023-05-14T09:35:25.872Z,97862.53
2023-05-14T09:37:56.127Z,97873.34
2023-05-14T09:40:25.410Z,97869.88
2023-05-14T09:42:53.631Z,97874.28
2023-05-14T09:45:21.551Z,97871.94
2023-05-14T09:47:49.654Z,97874.13
2023-05-14T09:50:17.678Z,97871.66
2023-05-14T09:52:45.805Z,97869.28
2023-05-14T09:55:16.132Z,97865.66
2023-05-14T09:57:46.608Z,97866.97
2023-05-14T10:00:16.155Z,97860.69
2023-05-14T10:02:46.648Z,97863.06
2023-05-14T10:05:15.926Z,97854.59
2023-05-14T10:07:48.087Z,97850.25
2023-05-14T10:10:20.730Z,97861.44
2023-05-14T10:12:53.478Z,97855.50
2023-05-14T10:15:28.309Z,97855.72
2023-05-14T10:18:00.326Z,97853.44
2023-05-14T10:20:29.753Z,97852.53
2023-05-14T10:22:59.463Z,97851.97
2023-05-14T10:25:29.226Z,97858.13
2023-05-14T10:27:57.932Z,97852.38
2023-05-14T10:30:26.293Z,97836.72
2023-05-14T10:33:08.386Z,97839.19
2023-05-14T10:35:58.504Z,97845.25
2023-05-14T10:38:28.552Z,97838.72
2023-05-14T10:41:03.955Z,97832.31
2023-05-14T10:43:41.196Z,97846.25
2023-05-14T10:46:10.756Z,97835.06
2023-05-14T10:48:41.459Z,97842.94
2023-05-14T10:51:13.198Z,97836.06
2023-05-14T10:53:42.896Z,97831.16
2023-05-14T10:56:14.064Z,97829.53
2023-05-14T10:58:46.511Z,97833.66
2023-05-14T11:01:15.106Z,97837.22
2023-05-14T11:03:45.058Z,97829.88
2023-05-14T11:06:14.583Z,97832.41
2023-05-14T11:08:44.008Z,97836.44
2023-05-14T11:11:14.023Z,97825.78
2023-05-14T11:13:43.137Z,97833.97
2023-05-14T11:16:22.594Z,97820.06
2023-05-14T11:19:02.057Z,97815.03
2023-05-14T11:21:30.945Z,97813.84
2023-05-14T11:24:00.903Z,97805.44
2023-05-14T11:26:30.785Z,97807.53
2023-05-14T11:28:59.408Z,97804.41
2023-05-14T11:31:27.858Z,97809.25
2023-05-14T11:33:56.336Z,97803.91
2023-05-14T11:36:24.400Z,97801.69
2023-05-14T11:38:52.728Z,97805.53
2023-05-14T11:41:23.191Z,97809.56
2023-05-14T11:43:52.942Z,97806.53
2023-05-14T11:46:21.878Z,97796.88
2023-05-14T11:48:54.462Z,97790.16
2023-05-14T11:51:42.609Z,97782.88
2023-05-14T11:54:20.261Z,97780.56
2023-05-14T11:57:10.628Z,97800.28
2023-05-14T12:00:02.562Z,97791.16
2023-05-14T12:02:47.396Z,97783.72
2023-05-14T12:05:18.951Z,97773.16
2023-05-14T12:07:49.759Z,97788.28
2023-05-14T12:10:20.225Z,97771.53
2023-05-14T12:12:56.660Z,97773.16
2023-05-14T12:15:36.757Z,97768.25
2023-05-14T12:18:23.506Z,97766.22
2023-05-14T12:20:53.222Z,97766.19
2023-05-14T12:23:27.535Z,97783.06
2023-05-14T12:26:03.658Z,97766.78
2023-05-14T12:28:55.076Z,97766.00
2023-05-14T12:31:43.098Z,97763.78
2023-05-14T12:34:14.279Z,97750.22
2023-05-14T12:36:49.572Z,97747.06
2023-05-14T12:39:21.910Z,97749.34
2023-05-14T12:41:50.343Z,97754.13
2023-05-14T12:44:37.728Z,97754.41
2023-05-14T12:47:08.141Z,97752.13
2023-05-14T12:49:41.001Z,97743.41
2023-05-14T12:52:26.040Z,97742.94
2023-05-14T12:55:02.875Z,97735.94
2023-05-14T12:57:36.567Z,97720.91
2023-05-14T13:00:07.331Z,97730.94
2023-05-14T13:02:42.373Z,97726.44
2023-05-14T13:05:27.899Z,97719.00
2023-05-14T13:07:56.100Z,97731.06
2023-05-14T13:10:24.845Z,97725.94
2023-05-14T13:12:52.979Z,97717.41
2023-05-14T13:15:21.052Z,97718.34
2023-05-14T13:17:51.294Z,97710.03
2023-05-14T13:20:19.301Z,97710.47
2023-05-14T13:22:47.511Z,97705.66
2023-05-14T13:25:15.936Z,97696.72
2023-05-14T13:27:46.969Z,97695.94
2023-05-14T13:30:15.268Z,97691.91
2023-05-14T13:32:44.711Z,97689.66
2023-05-14T13:35:15.000Z,97688.09
2023-05-14T13:37:44.751Z,97696.47
2023-05-14T13:40:15.043Z,97690.78
2023-05-14T13:42:43.004Z,97689.78
2023-05-14T13:45:11.886Z,97693.56
2023-05-14T13:47:42.631Z,97671.00
2023-05-14T13:50:11.306Z,97689.44
2023-05-14T13:52:40.873Z,97678.75
2023-05-14T13:55:09.747Z,97677.03
2023-05-14T13:57:39.793Z,97670.72
2023-05-14T14:00:09.614Z,97668.94
2023-05-14T14:02:37.972Z,97666.03
2023-05-14T14:05:06.841Z,97660.66
2023-05-14T14:07:35.122Z,97668.19
2023-05-14T14:10:05.016Z,97650.94
2023-05-14T14:12:36.206Z,97652.84
2023-05-14T14:15:04.638Z,97653.16
2023-05-14T14:17:35.303Z,97655.19
2023-05-14T14:20:12.832Z,97645.91
2023-05-14T14:22:44.393Z,97645.97
2023-05-14T14:25:14.251Z,97646.34
2023-05-14T14:27:42.903Z,97637.00
2023-05-14T14:30:15.797Z,97640.22
2023-05-14T14:32:47.398Z,97629.63
2023-05-14T14:35:19.671Z,97633.13
2023-05-14T14:37:54.380Z,97636.09
2023-05-14T14:40:24.190Z,97634.28
2023-05-14T14:42:54.604Z,97633.53
2023-05-14T14:45:23.031Z,97635.53
2023-05-14T14:47:51.892Z,97636.72
2023-05-14T14:50:20.003Z,97636.22
2023-05-14T14:52:48.154Z,97644.34
2023-05-14T14:55:16.228Z,97635.53
2023-05-14T14:57:48.157Z,97636.75
2023-05-14T15:00:19.820Z,97636.88
2023-05-14T15:02:47.907Z,97635.09
2023-05-14T15:05:16.135Z,97637.47
2023-05-14T15:07:50.001Z,97644.97
2023-05-14T15:10:18.010Z,97635.66
2023-05-14T15:12:47.437Z,97634.88
2023-05-14T15:15:15.395Z,97637.78
2023-05-14T15:17:45.974Z,97630.63
2023-05-14T15:20:14.437Z,97635.59
2023-05-14T15:22:45.357Z,97635.72
2023-05-14T15:25:13.584Z,97637.81
2023-05-14T15:27:44.454Z,97637.22
2023-05-14T15:30:17.149Z,97629.03
2023-05-14T15:32:46.467Z,97636.34
2023-05-14T15:35:15.026Z,97632.94
2023-05-14T15:37:44.692Z,97629.19
2023-05-14T15:40:14.855Z,97629.59
2023-05-14T15:42:44.177Z,97615.97
2023-05-14T15:45:15.137Z,97622.75
2023-05-14T15:47:44.248Z,97625.19
2023-05-14T15:50:14.290Z,97619.28
2023-05-14T15:52:42.719Z,97626.22
2023-05-14T15:55:13.460Z,97621.69
2023-05-14T15:57:41.745Z,97625.97
2023-05-14T16:00:11.346Z,97625.66
2023-05-14T16:02:41.485Z,97623.63
2023-05-14T16:05:12.498Z,97616.94
2023-05-14T16:07:40.807Z,97610.06
2023-05-14T16:10:09.827Z,97612.00
2023-05-14T16:12:37.894Z,97614.81
2023-05-14T16:15:07.187Z,97611.91
2023-05-14T16:17:37.258Z,97606.75
2023-05-14T16:20:09.776Z,97611.22
2023-05-14T16:22:38.067Z,97610.13
2023-05-14T16:25:10.614Z,97614.94
2023-05-14T16:27:40.642Z,97618.97
2023-05-14T16:30:12.870Z,97622.69
2023-05-14T16:32:58.884Z,97615.28
2023-05-14T16:35:32.291Z,97612.03
2023-05-14T16:38:02.837Z,97618.13
2023-05-14T16:40:34.973Z,97619.84
2023-05-14T16:43:03.094Z,97616.31
2023-05-14T16:45:32.723Z,97611.50
2023-05-14T16:48:01.441Z,97607.78
2023-05-14T16:50:30.989Z,97614.03
2023-05-14T16:52:59.059Z,97604.44
2023-05-14T16:55:27.255Z,97604.44
2023-05-14T16:57:55.532Z,97607.78
2023-05-14T17:00:23.724Z,97611.44
2023-05-14T17:02:54.301Z,97603.84
2023-05-14T17:05:22.865Z,97603.72
2023-05-14T17:07:52.457Z,97609.78
2023-05-14T17:10:20.490Z,97602.22
2023-05-14T17:12:48.383Z,97609.41
2023-05-14T17:15:16.457Z,97604.97
2023-05-14T17:17:44.361Z,97603.53
2023-05-14T17:20:15.925Z,97605.88
2023-05-14T17:22:44.803Z,97606.50
2023-05-14T17:25:14.221Z,97606.31
2023-05-14T17:27:43.445Z,97609.84
2023-05-14T17:30:12.108Z,97601.19
2023-05-14T17:32:40.327Z,97604.22
2023-05-14T17:35:09.760Z,97603.53
2023-05-14T17:37:37.943Z,97600.44
2023-05-14T17:40:07.182Z,97601.25
2023-05-14T17:42:36.498Z,97606.81
2023-05-14T17:45:04.614Z,97610.03
2023-05-14T17:47:33.679Z,97608.88
2023-05-14T17:50:01.960Z,97610.09
2023-05-14T17:52:29.829Z,97613.13
2023-05-14T17:54:57.744Z,97614.97
2023-05-14T17:57:26.188Z,97620.22
2023-05-14T17:59:55.465Z,97623.53
2023-05-14T18:02:23.633Z,97630.19
2023-05-14T18:04:51.555Z,97632.22
2023-05-14T18:07:20.817Z,97624.94
2023-05-14T18:09:48.689Z,97629.69
2023-05-14T18:12:16.619Z,97628.78
2023-05-14T18:14:45.673Z,97621.13
2023-05-14T18:17:15.244Z,97625.06
2023-05-14T18:19:43.166Z,97629.41
2023-05-14T18:22:11.075Z,97635.56
2023-05-14T18:24:39.343Z,97646.34
2023-05-14T18:27:07.580Z,97644.53
2023-05-14T18:29:35.876Z,97648.25
2023-05-14T18:32:03.769Z,97647.63
2023-05-14T18:34:33.055Z,97647.25
2023-05-14T18:37:01.135Z,97651.56
2023-05-14T18:39:29.205Z,97650.31
2023-05-14T18:41:58.012Z,97644.88
2023-05-14T18:44:25.911Z,97645.84
2023-05-14T18:46:55.779Z,97645.03
2023-05-14T18:49:23.963Z,97642.84
2023-05-14T18:51:55.152Z,97654.06
2023-05-14T18:54:23.084Z,97647.63
2023-05-14T18:56:50.983Z,97649.31
2023-05-14T18:59:20.246Z,97651.13
2023-05-14T19:01:48.900Z,97646.78
2023-05-14T19:04:16.915Z,97649.94
2023-05-14T19:06:45.090Z,97650.59
2023-05-14T19:09:21.039Z,97646.31
2023-05-14T19:11:49.024Z,97649.31
2023-05-14T19:14:17.351Z,97659.72
2023-05-14T19:16:45.498Z,97655.47
2023-05-14T19:19:14.089Z,97656.91
2023-05-14T19:21:42.358Z,97651.34
2023-05-14T19:24:10.621Z,97670.84
2023-05-14T19:26:40.995Z,97662.31
2023-05-14T19:29:08.850Z,97665.94
2023-05-14T19:31:36.760Z,97673.63
2023-05-14T19:34:06.497Z,97668.03
2023-05-14T19:36:34.420Z,97669.41
2023-05-14T19:39:03.198Z,97670.78
2023-05-14T19:41:31.128Z,97675.63
2023-05-14T19:44:00.894Z,97670.72
2023-05-14T19:46:28.905Z,97680.47
2023-05-14T19:48:56.837Z,97676.72
2023-05-14T19:51:25.353Z,97679.72
2023-05-14T19:53:53.664Z,97678.63
2023-05-14T19:56:23.201Z,97682.19
2023-05-14T19:58:52.219Z,97676.53
2023-05-14T20:01:22.120Z,97664.34
2023-05-14T20:03:51.617Z,97676.81
2023-05-14T20:06:19.582Z,97673.56
2023-05-14T20:08:47.486Z,97675.22
2023-05-14T20:11:15.853Z,97668.53
2023-05-14T20:13:43.896Z,97672.38
2023-05-14T20:16:16.853Z,97667.50
2023-05-14T20:18:46.522Z,97669.38
2023-05-14T20:21:14.789Z,97667.50
2023-05-14T20:23:42.792Z,97669.09
2023-05-14T20:26:10.912Z,97670.47
2023-05-14T20:28:39.164Z,97665.56
2023-05-14T20:31:07.265Z,97660.41
2023-05-14T20:33:35.242Z,97662.84
2023-05-14T20:36:05.394Z,97661.44
2023-05-14T20:38:35.201Z,97655.50
2023-05-14T20:41:03.752Z,97657.69
2023-05-14T20:43:31.964Z,97660.69
2023-05-14T20:46:00.611Z,97652.84
2023-05-14T20:48:28.837Z,97657.75
2023-05-14T20:50:57.054Z,97654.75
2023-05-14T20:53:28.345Z,97656.13
2023-05-14T20:55:56.368Z,97640.75
2023-05-14T20:58:24.314Z,97647.00
2023-05-14T21:00:52.474Z,97647.00
2023-05-14T21:03:20.822Z,97644.34
2023-05-14T21:05:48.775Z,97651.94
2023-05-14T21:08:18.059Z,97649.78
2023-05-14T21:10:47.725Z,97658.47
2023-05-14T21:13:15.768Z,97645.22
2023-05-14T21:15:43.958Z,97659.63
2023-05-14T21:18:13.556Z,97655.63
2023-05-14T21:20:42.150Z,97657.59
2023-05-14T21:23:10.554Z,97650.03
2023-05-14T21:25:38.833Z,97654.34
2023-05-14T21:28:09.496Z,97650.31
2023-05-14T21:30:37.415Z,97660.13
2023-05-14T21:33:05.826Z,97671.25
2023-05-14T21:35:34.309Z,97671.81
2023-05-14T21:38:02.411Z,97658.03
2023-05-14T21:40:30.804Z,97655.59
2023-05-14T21:42:58.823Z,97666.94
2023-05-14T21:45:28.703Z,97666.41
2023-05-14T21:47:57.048Z,97652.91
2023-05-14T21:50:25.120Z,97648.31
2023-05-14T21:52:53.041Z,97639.09
2023-05-14T21:55:21.048Z,97634.50
2023-05-14T21:57:49.436Z,97639.63
2023-05-14T22:00:23.306Z,97637.78
2023-05-14T22:02:53.547Z,97644.31
2023-05-14T22:05:22.261Z,97641.94
2023-05-14T22:07:50.488Z,97639.00
2023-05-14T22:10:18.825Z,97639.81
2023-05-14T22:12:47.497Z,97640.94
2023-05-14T22:15:15.707Z,97645.81
2023-05-14T22:17:44.050Z,97641.47
2023-05-14T22:20:13.934Z,97639.56
2023-05-14T22:22:41.841Z,97641.19
2023-05-14T22:25:10.790Z,97644.44
2023-05-14T22:27:39.117Z,97639.56
2023-05-14T22:30:08.561Z,97637.69
2023-05-14T22:32:36.548Z,97644.16
2023-05-14T22:35:05.205Z,97641.75
2023-05-14T22:37:37.149Z,97632.59
2023-05-14T22:40:06.222Z,97633.66
2023-05-14T22:42:34.388Z,97626.63
2023-05-14T22:45:02.280Z,97619.06
2023-05-14T22:47:30.275Z,97616.34
2023-05-14T22:49:58.364Z,97619.59
2023-05-14T22:52:27.027Z,97620.44
2023-05-14T22:54:56.427Z,97611.25
2023-05-14T22:57:24.489Z,97615.34
2023-05-14T22:59:52.704Z,97621.31
2023-05-14T23:02:20.850Z,97624.56
2023-05-14T23:04:49.013Z,97620.78
2023-05-14T23:07:18.029Z,97621.03
2023-05-14T23:09:46.223Z,97616.16
2023-05-14T23:12:15.570Z,97612.13
2023-05-14T23:14:43.674Z,97613.72
2023-05-14T23:17:11.802Z,97610.50
2023-05-14T23:19:40.086Z,97614.28
2023-05-14T23:22:08.302Z,97611.06
2023-05-14T23:24:36.342Z,97611.88
2023-05-14T23:27:04.708Z,97619.44
2023-05-14T23:29:34.101Z,97624.03
2023-05-14T23:32:02.162Z,97614.03
2023-05-14T23:34:30.273Z,97607.84
2023-05-14T23:36:58.350Z,97609.44
2023-05-14T23:39:26.390Z,97608.41
2023-05-14T23:41:54.422Z,97605.47
2023-05-14T23:44:22.653Z,97601.97
2023-05-14T23:46:52.282Z,97596.28
2023-05-14T23:49:21.005Z,97612.75
2023-05-14T23:51:48.884Z,97599.25
2023-05-14T23:54:17.469Z,97591.16
2023-05-14T23:56:45.552Z,97584.16
2023-05-14T23:59:13.813Z,97589.00
